Time;durP1;ratioP1;P1;durP2;ratioP2;P2;SDS_P1;SDS_P2;PMS_P1;PMS_P2;Temp;Humidity;BMP_temperature;BMP_pressure;BME280_temperature;BME280_humidity;BME280_pressure;Samples;Min_cycle;Max_cycle;Signal;HPM_P1;HPM_P2
2023/02/17 00:00:21;;;;;;;;;;;10.90;99.90;;;;;;5027830;28;20434;-58
2023/02/17 00:02:46;;;;;;;;;;;10.90;99.90;;;;;;5027792;28;19913;-60
2023/02/17 00:05:11;;;;;;;;;;;10.90;99.90;;;;;;5029888;28;20017;-61
2023/02/17 00:07:38;;;;;;;;;;;11.00;99.90;;;;;;5029368;28;19921;-62
2023/02/17 00:10:03;;;;;;;;;;;11.00;99.90;;;;;;5028109;28;19913;-60
2023/02/17 00:12:29;;;;;;;;;;;11.00;99.90;;;;;;5030826;28;20294;-60
2023/02/17 00:14:54;;;;;;;;;;;11.20;99.90;;;;;;5027214;28;20294;-61
2023/02/17 00:17:20;;;;;;;;;;;11.30;99.90;;;;;;5030089;28;19948;-62
2023/02/17 00:19:45;;;;;;;;;;;11.40;99.90;;;;;;5037298;28;19966;-61
2023/02/17 00:22:10;;;;;;;;;;;11.40;99.90;;;;;;5030395;28;19927;-61
2023/02/17 00:24:37;;;;;;;;;;;11.50;99.90;;;;;;5025285;28;19992;-61
2023/02/17 00:27:02;;;;;;;;;;;11.60;99.90;;;;;;5065708;23;19943;-64
2023/02/17 00:29:28;;;;;;;;;;;11.60;99.90;;;;;;5049795;28;19912;-66
2023/02/17 00:31:53;;;;;;;;;;;11.60;99.90;;;;;;5051293;28;20421;-67
2023/02/17 00:34:19;;;;;;;;;;;11.70;99.90;;;;;;5046076;28;19932;-65
2023/02/17 00:36:45;;;;;;;;;;;11.80;99.90;;;;;;5057911;28;19943;-65
2023/02/17 00:39:12;;;;;;;;;;;11.80;99.90;;;;;;5068985;28;19942;-65
2023/02/17 00:41:38;;;;;;;;;;;11.80;99.90;;;;;;5068326;28;19965;-65
2023/02/17 00:44:03;;;;;;;;;;;11.90;99.90;;;;;;5064498;28;19924;-66
2023/02/17 00:46:29;;;;;;;;;;;11.90;99.90;;;;;;5063221;28;19939;-64
2023/02/17 00:48:54;;;;;;;;;;;11.90;99.90;;;;;;5066512;28;19912;-67
2023/02/17 00:51:20;;;;;;;;;;;11.90;99.90;;;;;;5062394;28;20765;-67
2023/02/17 00:53:45;;;;;;;;;;;11.90;99.90;;;;;;5047295;28;19917;-66
2023/02/17 00:56:11;;;;;;;;;;;11.90;99.90;;;;;;5066419;28;20393;-66
2023/02/17 00:58:37;;;;;;;;;;;11.80;99.90;;;;;;5062751;28;19935;-66
2023/02/17 01:01:02;;;;;;;;;;;11.80;99.90;;;;;;5066256;28;20043;-67
2023/02/17 01:03:28;;;;;;;;;;;11.80;99.90;;;;;;5063335;28;19963;-64
2023/02/17 01:05:54;;;;;;;;;;;11.90;99.90;;;;;;5063303;28;20246;-66
2023/02/17 01:08:20;;;;;;;;;;;11.90;99.90;;;;;;5064611;28;19919;-66
2023/02/17 01:10:46;;;;;;;;;;;11.90;99.90;;;;;;5066804;28;19920;-66
2023/02/17 01:13:13;;;;;;;;;;;11.90;99.90;;;;;;5058608;28;19963;-66
2023/02/17 01:15:45;;;;;;;;;;;11.80;99.90;;;;;;5060292;28;19966;-65
2023/02/17 01:18:11;;;;;;;;;;;11.90;99.90;;;;;;5066730;28;19919;-65
2023/02/17 01:20:37;;;;;;;;;;;11.90;99.90;;;;;;5061891;28;20348;-65
2023/02/17 01:23:03;;;;;;;;;;;11.90;99.90;;;;;;5062523;28;19919;-64
2023/02/17 01:25:29;;;;;;;;;;;11.90;99.90;;;;;;5069145;28;19916;-66
2023/02/17 01:27:54;;;;;;;;;;;11.90;99.90;;;;;;5066250;28;20384;-65
2023/02/17 01:30:20;;;;;;;;;;;11.90;99.90;;;;;;5068566;28;19923;-66
2023/02/17 01:32:45;;;;;;;;;;;11.90;99.90;;;;;;5067613;28;19923;-66
2023/02/17 01:35:12;;;;;;;;;;;11.90;99.90;;;;;;5064941;28;19979;-65
2023/02/17 01:37:37;;;;;;;;;;;11.90;99.90;;;;;;5068245;28;19917;-66
2023/02/17 01:40:03;;;;;;;;;;;11.90;99.90;;;;;;5059460;28;20431;-66
2023/02/17 01:42:29;;;;;;;;;;;11.90;99.90;;;;;;5064217;28;20649;-66
2023/02/17 01:45:13;;;;;;;;;;;12.00;99.90;;;;;;5068449;28;19917;-66
2023/02/17 01:47:38;;;;;;;;;;;11.90;99.90;;;;;;5066403;28;19962;-66
2023/02/17 01:50:04;;;;;;;;;;;12.00;99.90;;;;;;5067745;28;20593;-66
2023/02/17 01:52:29;;;;;;;;;;;12.00;99.90;;;;;;5069991;28;20499;-66
2023/02/17 01:54:58;;;;;;;;;;;12.00;99.90;;;;;;5064292;28;19917;-66
2023/02/17 01:57:26;;;;;;;;;;;11.90;99.90;;;;;;5066272;28;19912;-65
2023/02/17 01:59:52;;;;;;;;;;;11.90;99.90;;;;;;5062457;28;20305;-66
2023/02/17 02:02:18;;;;;;;;;;;11.90;99.90;;;;;;5064780;28;19920;-67
2023/02/17 02:04:45;;;;;;;;;;;11.90;99.90;;;;;;5070367;28;20011;-66
2023/02/17 02:07:13;;;;;;;;;;;11.90;99.90;;;;;;5060483;28;21037;-67
2023/02/17 02:10:07;;;;;;;;;;;12.00;99.90;;;;;;5056949;28;19919;-66
2023/02/17 02:12:34;;;;;;;;;;;12.00;99.90;;;;;;5051603;28;19936;-66
2023/02/17 02:15:01;;;;;;;;;;;12.00;99.90;;;;;;5065017;28;19936;-66
2023/02/17 02:17:40;;;;;;;;;;;11.90;99.90;;;;;;5062468;28;19919;-65
2023/02/17 02:20:27;;;;;;;;;;;12.00;99.90;;;;;;5058019;28;19913;-65
2023/02/17 02:22:59;;;;;;;;;;;12.00;99.90;;;;;;5066455;28;19913;-65
2023/02/17 02:25:33;;;;;;;;;;;12.00;99.90;;;;;;5068258;28;19999;-65
2023/02/17 02:28:12;;;;;;;;;;;12.00;99.90;;;;;;5059715;28;21249;-65
2023/02/17 02:31:04;;;;;;;;;;;12.00;99.90;;;;;;5062696;28;20801;-66
2023/02/17 02:33:38;;;;;;;;;;;12.00;99.90;;;;;;5024359;28;19931;-64
2023/02/17 02:36:09;;;;;;;;;;;12.10;99.90;;;;;;5068709;28;20329;-65
2023/02/17 02:38:43;;;;;;;;;;;12.00;99.90;;;;;;5070678;28;19919;-65
2023/02/17 02:41:38;;;;;;;;;;;12.00;99.90;;;;;;5066723;28;19913;-66
2023/02/17 02:44:05;;;;;;;;;;;12.00;99.90;;;;;;5050297;28;19965;-66
2023/02/17 02:46:31;;;;;;;;;;;11.90;99.90;;;;;;5060834;28;19920;-65
2023/02/17 02:48:56;;;;;;;;;;;11.90;99.90;;;;;;5065305;28;19912;-66
2023/02/17 02:51:40;;;;;;;;;;;11.90;99.90;;;;;;5063337;28;20050;-65
2023/02/17 02:54:24;;;;;;;;;;;11.90;99.90;;;;;;5062013;28;20345;-66
2023/02/17 02:56:53;;;;;;;;;;;11.90;99.90;;;;;;5062500;28;19932;-66
2023/02/17 02:59:24;;;;;;;;;;;11.90;99.90;;;;;;5059979;28;19920;-66
2023/02/17 03:01:55;;;;;;;;;;;11.90;99.90;;;;;;5062509;28;19920;-66
2023/02/17 03:04:25;;;;;;;;;;;11.90;99.90;;;;;;5061445;28;19917;-66
2023/02/17 03:07:00;;;;;;;;;;;11.90;99.90;;;;;;5062267;28;20012;-66
2023/02/17 03:09:26;;;;;;;;;;;11.90;99.90;;;;;;5065529;28;19920;-65
2023/02/17 03:11:55;;;;;;;;;;;11.90;99.90;;;;;;5066232;28;19916;-66
2023/02/17 03:14:21;;;;;;;;;;;11.90;99.90;;;;;;5062829;28;20031;-66
2023/02/17 03:16:47;;;;;;;;;;;11.90;99.90;;;;;;5061647;28;19967;-66
2023/02/17 03:19:13;;;;;;;;;;;11.90;99.90;;;;;;5064793;28;20304;-66
2023/02/17 03:21:40;;;;;;;;;;;11.80;99.90;;;;;;5061021;28;19920;-65
2023/02/17 03:24:06;;;;;;;;;;;11.80;99.90;;;;;;5062663;28;19913;-67
2023/02/17 03:26:32;;;;;;;;;;;11.90;99.90;;;;;;5064114;28;19924;-66
2023/02/17 03:28:57;;;;;;;;;;;11.80;99.90;;;;;;5061303;28;20374;-66
2023/02/17 03:31:22;;;;;;;;;;;11.90;99.90;;;;;;5056104;28;19919;-66
2023/02/17 03:33:48;;;;;;;;;;;11.90;99.90;;;;;;5061034;28;20402;-66
2023/02/17 03:36:13;;;;;;;;;;;11.80;99.90;;;;;;5061669;28;19920;-66
2023/02/17 03:38:39;;;;;;;;;;;11.90;99.90;;;;;;5066484;28;20042;-66
2023/02/17 03:41:04;;;;;;;;;;;11.90;99.90;;;;;;5065712;28;19913;-66
2023/02/17 03:43:30;;;;;;;;;;;11.80;99.90;;;;;;5063148;28;19923;-66
2023/02/17 03:45:55;;;;;;;;;;;11.90;99.90;;;;;;5055301;28;20327;-66
2023/02/17 03:48:21;;;;;;;;;;;11.80;99.90;;;;;;5062017;28;19990;-66
2023/02/17 03:50:46;;;;;;;;;;;11.90;99.90;;;;;;5063651;28;19978;-65
2023/02/17 03:53:12;;;;;;;;;;;11.90;99.90;;;;;;5059711;28;19913;-65
2023/02/17 03:55:37;;;;;;;;;;;11.90;99.90;;;;;;5065114;28;19916;-65
2023/02/17 03:58:03;;;;;;;;;;;11.90;99.90;;;;;;5064153;28;20381;-65
2023/02/17 04:00:28;;;;;;;;;;;11.90;99.90;;;;;;5065428;28;19939;-65
2023/02/17 04:02:55;;;;;;;;;;;11.90;99.90;;;;;;5060553;28;20035;-65
2023/02/17 04:05:21;;;;;;;;;;;11.90;99.90;;;;;;5064367;28;21891;-65
2023/02/17 04:07:47;;;;;;;;;;;11.90;99.90;;;;;;5063846;28;20003;-65
2023/02/17 04:10:12;;;;;;;;;;;12.00;99.90;;;;;;5066493;28;19919;-65
2023/02/17 04:12:37;;;;;;;;;;;12.00;99.90;;;;;;5064347;28;19916;-65
2023/02/17 04:15:03;;;;;;;;;;;12.00;99.90;;;;;;5063482;28;20393;-65
2023/02/17 04:17:28;;;;;;;;;;;12.00;99.90;;;;;;5061897;28;19951;-66
2023/02/17 04:19:54;;;;;;;;;;;11.90;99.90;;;;;;5059829;28;19913;-65
2023/02/17 04:22:19;;;;;;;;;;;12.00;99.90;;;;;;5060898;28;19916;-65
2023/02/17 04:24:45;;;;;;;;;;;12.00;99.90;;;;;;5059310;28;20008;-65
2023/02/17 04:27:10;;;;;;;;;;;12.00;99.90;;;;;;5058976;28;20397;-67
2023/02/17 04:29:36;;;;;;;;;;;12.00;99.90;;;;;;5060594;28;19920;-67
2023/02/17 04:32:01;;;;;;;;;;;11.90;99.90;;;;;;5062085;28;19913;-66
2023/02/17 04:34:27;;;;;;;;;;;11.90;99.90;;;;;;5063000;28;19920;-66
2023/02/17 04:36:52;;;;;;;;;;;11.90;99.90;;;;;;5058971;28;19919;-66
2023/02/17 04:39:18;;;;;;;;;;;12.00;99.90;;;;;;5060822;28;19974;-66
2023/02/17 04:41:43;;;;;;;;;;;12.00;99.90;;;;;;5057609;28;20354;-66
2023/02/17 04:44:08;;;;;;;;;;;12.00;99.90;;;;;;5062395;28;19974;-66
2023/02/17 04:46:34;;;;;;;;;;;12.00;99.90;;;;;;5062357;28;19927;-66
2023/02/17 04:48:59;;;;;;;;;;;12.00;99.90;;;;;;5064394;28;19916;-66
2023/02/17 04:51:25;;;;;;;;;;;12.00;99.90;;;;;;5066712;28;20328;-66
2023/02/17 04:53:50;;;;;;;;;;;12.00;99.90;;;;;;5066955;28;19916;-66
2023/02/17 04:56:16;;;;;;;;;;;12.00;99.90;;;;;;5060624;28;20012;-66
2023/02/17 04:58:41;;;;;;;;;;;11.90;99.90;;;;;;5063884;28;19974;-66
2023/02/17 05:01:07;;;;;;;;;;;12.00;99.90;;;;;;5060908;28;19928;-66
2023/02/17 05:03:32;;;;;;;;;;;11.90;99.90;;;;;;5064673;28;19912;-66
2023/02/17 05:05:57;;;;;;;;;;;11.80;99.90;;;;;;5062731;28;19926;-66
2023/02/17 05:08:23;;;;;;;;;;;11.80;99.90;;;;;;5047873;28;20361;-66
2023/02/17 05:10:51;;;;;;;;;;;11.70;99.90;;;;;;5064368;28;19912;-66
2023/02/17 05:13:17;;;;;;;;;;;11.80;99.90;;;;;;5062710;28;19939;-66
2023/02/17 05:15:43;;;;;;;;;;;11.80;99.90;;;;;;5062377;28;19912;-66
2023/02/17 05:18:08;;;;;;;;;;;11.80;99.90;;;;;;5060951;28;19938;-65
2023/02/17 05:20:34;;;;;;;;;;;11.80;99.90;;;;;;5047361;28;20391;-66
2023/02/17 05:22:59;;;;;;;;;;;11.80;99.90;;;;;;5064628;28;19999;-66
2023/02/17 05:25:24;;;;;;;;;;;11.90;99.90;;;;;;5062508;28;19952;-65
2023/02/17 05:27:50;;;;;;;;;;;11.90;99.90;;;;;;5062155;28;19924;-65
2023/02/17 05:30:15;;;;;;;;;;;11.80;99.90;;;;;;5059825;28;19913;-67
2023/02/17 05:32:41;;;;;;;;;;;11.80;99.90;;;;;;5062232;28;19919;-66
2023/02/17 05:35:06;;;;;;;;;;;11.90;99.90;;;;;;5053117;28;19917;-66
2023/02/17 05:37:32;;;;;;;;;;;11.90;99.90;;;;;;5059572;28;20295;-65
2023/02/17 05:39:57;;;;;;;;;;;11.90;99.90;;;;;;5059979;28;19919;-66
2023/02/17 05:42:27;;;;;;;;;;;11.90;99.90;;;;;;5057821;28;19913;-66
2023/02/17 05:44:53;;;;;;;;;;;11.90;99.90;;;;;;5061620;28;20404;-66
2023/02/17 05:47:19;;;;;;;;;;;11.90;99.90;;;;;;5064657;28;19920;-66
2023/02/17 05:49:44;;;;;;;;;;;12.00;99.90;;;;;;5056381;28;20298;-66
2023/02/17 05:52:10;;;;;;;;;;;12.00;99.90;;;;;;5058406;28;20015;-67
2023/02/17 05:54:35;;;;;;;;;;;12.00;99.90;;;;;;5044892;28;19970;-66
2023/02/17 05:57:00;;;;;;;;;;;12.00;99.90;;;;;;5059762;28;19962;-66
2023/02/17 05:59:26;;;;;;;;;;;12.00;99.90;;;;;;5065909;28;19913;-66
2023/02/17 06:01:51;;;;;;;;;;;12.00;99.90;;;;;;5061305;28;19913;-66
2023/02/17 06:04:17;;;;;;;;;;;12.00;99.90;;;;;;5062774;28;19912;-66
2023/02/17 06:06:42;;;;;;;;;;;12.00;99.90;;;;;;5057384;28;19942;-66
2023/02/17 06:09:08;;;;;;;;;;;12.00;99.90;;;;;;5061923;28;19977;-67
2023/02/17 06:11:33;;;;;;;;;;;12.00;99.90;;;;;;5066383;28;19967;-66
2023/02/17 06:13:59;;;;;;;;;;;12.00;99.90;;;;;;5069967;28;20023;-67
2023/02/17 06:16:24;;;;;;;;;;;12.10;99.90;;;;;;5064293;28;19924;-66
2023/02/17 06:18:50;;;;;;;;;;;12.10;99.90;;;;;;5067603;28;19928;-66
2023/02/17 06:21:15;;;;;;;;;;;12.10;99.90;;;;;;5067945;28;19919;-66
2023/02/17 06:23:41;;;;;;;;;;;12.20;99.90;;;;;;5064501;28;19913;-67
2023/02/17 06:26:06;;;;;;;;;;;12.20;99.90;;;;;;5057839;28;19924;-67
2023/02/17 06:28:31;;;;;;;;;;;12.20;99.90;;;;;;5064072;28;20340;-67
2023/02/17 06:30:57;;;;;;;;;;;12.20;99.90;;;;;;5059756;28;19923;-66
2023/02/17 06:33:22;;;;;;;;;;;12.20;99.90;;;;;;5064507;28;19974;-67
2023/02/17 06:35:48;;;;;;;;;;;12.20;99.90;;;;;;5061188;28;19917;-67
2023/02/17 06:38:14;;;;;;;;;;;12.20;99.90;;;;;;5069257;28;19917;-65
2023/02/17 06:40:39;;;;;;;;;;;12.20;99.90;;;;;;5063201;28;19943;-66
2023/02/17 06:43:05;;;;;;;;;;;12.20;99.90;;;;;;5065152;28;20352;-66
2023/02/17 06:45:31;;;;;;;;;;;12.30;99.90;;;;;;5059039;28;19917;-66
2023/02/17 06:47:56;;;;;;;;;;;12.20;99.90;;;;;;5063221;28;19932;-66
2023/02/17 06:50:22;;;;;;;;;;;12.30;99.90;;;;;;5065204;28;19920;-67
2023/02/17 06:52:47;;;;;;;;;;;12.30;99.90;;;;;;5061822;28;19920;-67
2023/02/17 06:55:13;;;;;;;;;;;12.30;99.90;;;;;;5060837;28;20437;-66
2023/02/17 06:57:38;;;;;;;;;;;12.30;99.90;;;;;;5065465;28;19912;-66
2023/02/17 07:00:04;;;;;;;;;;;12.30;99.90;;;;;;5065453;28;19958;-64
2023/02/17 07:02:29;;;;;;;;;;;12.30;99.90;;;;;;5060299;28;19963;-67
2023/02/17 07:04:55;;;;;;;;;;;12.30;99.90;;;;;;5068768;28;19974;-65
2023/02/17 07:07:20;;;;;;;;;;;12.30;99.90;;;;;;5069609;28;19920;-66
2023/02/17 07:09:46;;;;;;;;;;;12.30;99.90;;;;;;5065858;28;19923;-66
2023/02/17 07:12:11;;;;;;;;;;;12.30;99.90;;;;;;5070905;28;19973;-66
2023/02/17 07:14:37;;;;;;;;;;;12.40;99.90;;;;;;5062945;28;20410;-65
2023/02/17 07:17:02;;;;;;;;;;;12.40;99.90;;;;;;5061530;28;20278;-65
2023/02/17 07:19:28;;;;;;;;;;;12.40;99.90;;;;;;5060544;28;19917;-65
2023/02/17 07:21:53;;;;;;;;;;;12.30;99.90;;;;;;5067862;28;20000;-65
2023/02/17 07:24:19;;;;;;;;;;;12.40;99.90;;;;;;5067875;28;20373;-65
2023/02/17 07:26:44;;;;;;;;;;;12.40;99.90;;;;;;5062272;28;20017;-65
2023/02/17 07:29:09;;;;;;;;;;;12.40;99.90;;;;;;5065149;28;19916;-64
2023/02/17 07:31:35;;;;;;;;;;;12.40;99.90;;;;;;5060904;28;19912;-65
2023/02/17 07:34:01;;;;;;;;;;;12.40;99.90;;;;;;5064750;28;19923;-64
2023/02/17 07:36:27;;;;;;;;;;;12.40;99.90;;;;;;5065371;28;19921;-66
2023/02/17 07:38:52;;;;;;;;;;;12.40;99.90;;;;;;5060124;28;20054;-65
2023/02/17 07:41:19;;;;;;;;;;;12.40;99.90;;;;;;5065206;28;19923;-67
2023/02/17 07:43:45;;;;;;;;;;;12.40;99.90;;;;;;5066183;28;20384;-66
2023/02/17 07:46:11;;;;;;;;;;;12.40;99.90;;;;;;5062997;28;20347;-67
2023/02/17 07:48:37;;;;;;;;;;;12.40;99.90;;;;;;5061828;28;19917;-67
2023/02/17 07:51:10;;;;;;;;;;;12.50;99.90;;;;;;5065927;28;19921;-66
2023/02/17 07:53:35;;;;;;;;;;;12.50;99.90;;;;;;5063050;28;19935;-64
2023/02/17 07:56:02;;;;;;;;;;;12.60;99.90;;;;;;5066949;28;19912;-65
2023/02/17 07:58:29;;;;;;;;;;;12.60;99.90;;;;;;5067615;28;19916;-65
2023/02/17 08:00:55;;;;;;;;;;;12.70;99.90;;;;;;5064066;28;19916;-65
2023/02/17 08:03:20;;;;;;;;;;;12.70;99.90;;;;;;5065680;28;19928;-64
2023/02/17 08:05:49;;;;;;;;;;;12.80;99.90;;;;;;5060973;28;20703;-65
2023/02/17 08:13:43;;;;;;;;;;;12.80;99.90;;;;;;5061415;28;20075;-67
2023/02/17 08:16:09;;;;;;;;;;;12.80;99.90;;;;;;5059879;28;20024;-66
2023/02/17 08:18:34;;;;;;;;;;;12.80;99.90;;;;;;5062889;28;20037;-66
2023/02/17 08:21:00;;;;;;;;;;;12.90;99.90;;;;;;5063212;28;19924;-66
2023/02/17 08:23:25;;;;;;;;;;;12.90;99.90;;;;;;5061876;28;19912;-66
2023/02/17 08:25:51;;;;;;;;;;;12.90;99.90;;;;;;5061446;28;21953;-66
2023/02/17 08:28:16;;;;;;;;;;;13.00;99.90;;;;;;5068206;28;20000;-67
2023/02/17 08:30:42;;;;;;;;;;;13.00;99.90;;;;;;5058072;28;19916;-66
2023/02/17 08:33:07;;;;;;;;;;;13.10;99.90;;;;;;5058427;28;19913;-66
2023/02/17 08:35:33;;;;;;;;;;;13.10;99.90;;;;;;5060670;28;19959;-67
2023/02/17 08:37:58;;;;;;;;;;;13.30;99.90;;;;;;5061364;28;19913;-66
2023/02/17 08:40:24;;;;;;;;;;;13.40;99.90;;;;;;5059781;28;20578;-67
2023/02/17 08:42:49;;;;;;;;;;;13.40;99.90;;;;;;5058859;28;19985;-66
2023/02/17 08:45:15;;;;;;;;;;;13.40;99.90;;;;;;5057893;28;20069;-66
2023/02/17 08:47:40;;;;;;;;;;;13.40;99.90;;;;;;5064763;28;19920;-66
2023/02/17 08:50:07;;;;;;;;;;;13.40;99.90;;;;;;5064771;28;19967;-67
2023/02/17 08:52:33;;;;;;;;;;;13.40;99.90;;;;;;5059944;28;19916;-66
2023/02/17 08:54:58;;;;;;;;;;;13.40;99.90;;;;;;5064825;28;19923;-66
2023/02/17 08:57:25;;;;;;;;;;;13.50;99.90;;;;;;5063493;28;19912;-64
2023/02/17 08:59:51;;;;;;;;;;;13.50;99.90;;;;;;5063105;28;20657;-66
2023/02/17 09:02:16;;;;;;;;;;;13.60;99.90;;;;;;5065408;28;19919;-66
2023/02/17 09:04:42;;;;;;;;;;;13.50;99.90;;;;;;5065962;28;19919;-66
2023/02/17 09:07:08;;;;;;;;;;;13.60;99.90;;;;;;5045890;28;19916;-67
2023/02/17 09:09:34;;;;;;;;;;;13.60;99.90;;;;;;5061791;28;19919;-66
2023/02/17 09:11:59;;;;;;;;;;;13.70;99.90;;;;;;5059206;28;20389;-66
2023/02/17 09:14:25;;;;;;;;;;;13.80;99.90;;;;;;5064067;28;19913;-66
2023/02/17 09:16:51;;;;;;;;;;;13.80;99.90;;;;;;5066098;28;19920;-67
2023/02/17 09:19:16;;;;;;;;;;;13.90;99.90;;;;;;5060793;28;19912;-66
2023/02/17 09:21:42;;;;;;;;;;;13.90;99.90;;;;;;5060182;28;19912;-67
2023/02/17 09:24:07;;;;;;;;;;;14.00;99.90;;;;;;5049264;28;20006;-66
2023/02/17 09:26:35;;;;;;;;;;;14.10;99.90;;;;;;5062020;28;19939;-66
2023/02/17 09:29:02;;;;;;;;;;;14.10;99.90;;;;;;5064398;28;19916;-66
2023/02/17 09:31:28;;;;;;;;;;;14.20;99.90;;;;;;5056416;28;20323;-66
2023/02/17 09:33:54;;;;;;;;;;;14.30;99.90;;;;;;5061414;28;19920;-67
2023/02/17 09:36:21;;;;;;;;;;;14.40;99.90;;;;;;5059981;28;19916;-66
2023/02/17 09:38:47;;;;;;;;;;;14.40;99.90;;;;;;5062810;28;20393;-67
2023/02/17 09:41:13;;;;;;;;;;;14.50;99.90;;;;;;5064102;28;20285;-67
2023/02/17 09:43:38;;;;;;;;;;;14.60;99.90;;;;;;5062923;28;19916;-66
2023/02/17 09:46:11;;;;;;;;;;;14.60;99.90;;;;;;5053223;28;20036;-66
2023/02/17 09:48:37;;;;;;;;;;;14.70;99.90;;;;;;5068312;28;19916;-65
2023/02/17 09:51:05;;;;;;;;;;;14.80;99.90;;;;;;5066796;28;20014;-66
2023/02/17 09:53:43;;;;;;;;;;;14.90;99.90;;;;;;5066940;28;19951;-65
2023/02/17 09:56:10;;;;;;;;;;;14.90;99.90;;;;;;5062704;28;20336;-65
2023/02/17 09:58:38;;;;;;;;;;;15.00;99.90;;;;;;5067759;28;19912;-65
2023/02/17 10:01:07;;;;;;;;;;;15.00;99.90;;;;;;5067666;28;19916;-66
2023/02/17 10:03:38;;;;;;;;;;;15.10;99.90;;;;;;5067788;28;20452;-65
2023/02/17 10:06:21;;;;;;;;;;;15.20;99.90;;;;;;5062857;28;19938;-65
2023/02/17 10:08:49;;;;;;;;;;;15.20;99.90;;;;;;5066295;28;20303;-66
2023/02/17 10:11:19;;;;;;;;;;;15.40;99.90;;;;;;5063331;28;19939;-66
2023/02/17 10:13:45;;;;;;;;;;;15.40;99.90;;;;;;5070531;28;20007;-65
2023/02/17 10:16:14;;;;;;;;;;;15.50;99.90;;;;;;5063463;28;20054;-66
2023/02/17 10:18:42;;;;;;;;;;;15.70;99.90;;;;;;5061846;28;20018;-66
2023/02/17 10:21:37;;;;;;;;;;;15.70;99.90;;;;;;5066876;28;19923;-66
2023/02/17 10:24:02;;;;;;;;;;;15.70;99.90;;;;;;5047603;28;20034;-66
2023/02/17 10:26:49;;;;;;;;;;;15.90;99.90;;;;;;5063065;28;19917;-66
2023/02/17 10:29:30;;;;;;;;;;;15.90;99.90;;;;;;5047693;28;19919;-66
2023/02/17 10:32:04;;;;;;;;;;;15.90;99.90;;;;;;5063763;28;20375;-66
2023/02/17 10:34:32;;;;;;;;;;;15.90;99.90;;;;;;5064023;28;19912;-66
2023/02/17 10:36:59;;;;;;;;;;;16.00;99.90;;;;;;5064040;28;19919;-64
2023/02/17 10:39:30;;;;;;;;;;;16.00;99.90;;;;;;5056576;28;19936;-64
2023/02/17 10:41:56;;;;;;;;;;;16.10;99.90;;;;;;5062496;28;19920;-65
2023/02/17 10:44:23;;;;;;;;;;;16.10;99.90;;;;;;5069986;28;19908;-64
2023/02/17 10:46:50;;;;;;;;;;;16.20;99.90;;;;;;5062860;28;19936;-65
2023/02/17 10:49:26;;;;;;;;;;;16.30;99.90;;;;;;5066168;28;20451;-65
2023/02/17 10:51:51;;;;;;;;;;;16.40;99.90;;;;;;5067508;28;20377;-64
2023/02/17 10:54:36;;;;;;;;;;;16.30;99.90;;;;;;5067288;28;19919;-66
2023/02/17 10:57:03;;;;;;;;;;;16.40;99.90;;;;;;5066104;28;19974;-65
2023/02/17 10:59:32;;;;;;;;;;;16.20;99.90;;;;;;5061044;28;19916;-65
2023/02/17 11:02:27;;;;;;;;;;;16.40;99.90;;;;;;5059236;28;20031;-65
2023/02/17 11:04:55;;;;;;;;;;;16.40;99.90;;;;;;5054968;28;19923;-64
2023/02/17 11:07:29;;;;;;;;;;;16.30;99.90;;;;;;5066175;28;19924;-64
2023/02/17 11:09:56;;;;;;;;;;;16.20;99.90;;;;;;5065852;28;19919;-65
2023/02/17 11:12:42;;;;;;;;;;;16.30;99.90;;;;;;5065454;28;20057;-65
2023/02/17 11:15:15;;;;;;;;;;;16.30;99.90;;;;;;5066855;28;20398;-65
2023/02/17 11:17:40;;;;;;;;;;;16.40;99.90;;;;;;5060549;28;19912;-66
2023/02/17 11:20:14;;;;;;;;;;;16.50;99.90;;;;;;5061249;28;19916;-66
2023/02/17 11:22:44;;;;;;;;;;;16.30;99.90;;;;;;5061175;28;19927;-67
2023/02/17 11:25:23;;;;;;;;;;;16.30;99.90;;;;;;5056446;28;19927;-66
2023/02/17 11:27:50;;;;;;;;;;;16.40;99.90;;;;;;5062814;28;19952;-65
2023/02/17 11:30:17;;;;;;;;;;;16.30;99.90;;;;;;5063153;28;19913;-65
2023/02/17 11:32:43;;;;;;;;;;;16.20;99.90;;;;;;5055949;28;19912;-69
2023/02/17 11:35:20;;;;;;;;;;;16.10;99.90;;;;;;5041090;28;20367;-67
2023/02/17 11:37:45;;;;;;;;;;;16.20;99.90;;;;;;5061228;28;19913;-66
2023/02/17 11:40:21;;;;;;;;;;;16.20;99.90;;;;;;5059225;28;20057;-67
2023/02/17 11:42:53;;;;;;;;;;;16.20;99.90;;;;;;5058854;28;19909;-66
2023/02/17 11:45:20;;;;;;;;;;;16.20;99.90;;;;;;5064145;28;19912;-67
2023/02/17 11:47:49;;;;;;;;;;;16.20;99.90;;;;;;5060465;28;20367;-67
2023/02/17 11:50:34;;;;;;;;;;;16.30;99.90;;;;;;5063787;28;19920;-65
2023/02/17 11:53:00;;;;;;;;;;;16.30;99.90;;;;;;5045643;28;19948;-64
2023/02/17 11:55:25;;;;;;;;;;;16.30;99.90;;;;;;5052673;28;19944;-64
2023/02/17 11:58:06;;;;;;;;;;;16.50;99.90;;;;;;5059661;28;20007;-64
2023/02/17 12:00:46;;;;;;;;;;;16.60;99.90;;;;;;5055769;28;19964;-65
2023/02/17 12:03:32;;;;;;;;;;;16.70;99.90;;;;;;5061729;28;19913;-65
2023/02/17 12:06:10;;;;;;;;;;;16.70;99.90;;;;;;5057557;28;19947;-66
2023/02/17 12:08:45;;;;;;;;;;;16.70;99.90;;;;;;5059991;28;19912;-67
2023/02/17 12:11:17;;;;;;;;;;;16.60;99.90;;;;;;5057786;28;19927;-66
2023/02/17 12:13:54;;;;;;;;;;;16.60;99.90;;;;;;5065619;28;19952;-67
2023/02/17 12:16:38;;;;;;;;;;;16.60;99.90;;;;;;5065709;28;19916;-67
2023/02/17 12:19:22;;;;;;;;;;;16.60;99.90;;;;;;5063978;28;19920;-65
2023/02/17 12:21:52;;;;;;;;;;;16.70;99.90;;;;;;5060337;28;20418;-64
2023/02/17 12:24:20;;;;;;;;;;;16.70;99.90;;;;;;5057814;28;19921;-65
2023/02/17 12:26:48;;;;;;;;;;;16.80;99.90;;;;;;5084863;22;19939;-63
2023/02/17 12:29:29;;;;;;;;;;;16.90;99.90;;;;;;5060015;28;19925;-62
2023/02/17 12:32:13;;;;;;;;;;;16.80;99.90;;;;;;5053573;28;20378;-63
2023/02/17 12:34:40;;;;;;;;;;;16.70;99.90;;;;;;5057690;28;20560;-60
2023/02/17 12:37:12;;;;;;;;;;;16.80;99.90;;;;;;5055892;28;20329;-63
2023/02/17 12:39:42;;;;;;;;;;;16.90;99.90;;;;;;5041304;28;19919;-65
2023/02/17 12:42:31;;;;;;;;;;;17.20;99.90;;;;;;5035937;28;19913;-65
2023/02/17 12:45:01;;;;;;;;;;;17.00;99.90;;;;;;5035797;28;20497;-64
2023/02/17 12:47:34;;;;;;;;;;;16.80;99.90;;;;;;5038560;28;19953;-64
2023/02/17 12:50:10;;;;;;;;;;;16.70;99.90;;;;;;5036105;28;20284;-62
2023/02/17 12:52:38;;;;;;;;;;;16.60;99.90;;;;;;5042335;28;19921;-64
2023/02/17 12:55:10;;;;;;;;;;;16.90;99.90;;;;;;5040997;28;20011;-63
2023/02/17 12:57:36;;;;;;;;;;;17.40;99.90;;;;;;5043836;28;19913;-63
2023/02/17 13:00:10;;;;;;;;;;;17.70;99.90;;;;;;5040624;28;19943;-63
2023/02/17 13:02:35;;;;;;;;;;;17.80;99.90;;;;;;5038804;28;20783;-62
2023/02/17 13:05:03;;;;;;;;;;;17.60;99.90;;;;;;5042089;28;19917;-63
2023/02/17 13:07:32;;;;;;;;;;;17.80;99.90;;;;;;5042545;28;19944;-64
2023/02/17 13:09:58;;;;;;;;;;;18.00;99.90;;;;;;5035814;28;19921;-62
2023/02/17 13:12:23;;;;;;;;;;;17.70;99.90;;;;;;5038263;28;20627;-62
2023/02/17 13:14:53;;;;;;;;;;;17.40;99.90;;;;;;5033520;28;19920;-62
2023/02/17 13:17:29;;;;;;;;;;;17.20;99.90;;;;;;5043298;28;19917;-61
2023/02/17 13:20:10;;;;;;;;;;;17.10;99.90;;;;;;5045573;28;21377;-59
2023/02/17 13:22:36;;;;;;;;;;;17.10;99.90;;;;;;5042012;28;19916;-62
2023/02/17 13:25:02;;;;;;;;;;;16.90;99.90;;;;;;5044139;28;20590;-61
2023/02/17 13:27:27;;;;;;;;;;;16.90;99.90;;;;;;5044381;28;19932;-62
2023/02/17 13:30:02;;;;;;;;;;;16.90;99.90;;;;;;5043519;28;19956;-61
2023/02/17 13:32:29;;;;;;;;;;;16.90;99.90;;;;;;5045675;28;19919;-64
2023/02/17 13:34:59;;;;;;;;;;;16.90;99.90;;;;;;5041498;28;20405;-62
2023/02/17 13:37:36;;;;;;;;;;;16.90;99.90;;;;;;5043905;28;20020;-62
2023/02/17 13:40:23;;;;;;;;;;;16.90;99.90;;;;;;5045187;28;19919;-59
2023/02/17 13:42:48;;;;;;;;;;;16.90;99.90;;;;;;5028586;28;19920;-61
2023/02/17 13:45:25;;;;;;;;;;;16.70;99.90;;;;;;5038513;28;19912;-62
2023/02/17 13:47:52;;;;;;;;;;;16.70;99.90;;;;;;5046762;28;19925;-62
2023/02/17 13:50:37;;;;;;;;;;;16.70;99.90;;;;;;5041972;28;20461;-61
2023/02/17 13:53:18;;;;;;;;;;;16.70;99.90;;;;;;5041154;28;20318;-60
2023/02/17 13:55:43;;;;;;;;;;;16.70;99.90;;;;;;5041004;28;19912;-62
2023/02/17 13:58:09;;;;;;;;;;;16.60;99.90;;;;;;5032733;28;19920;-60
2023/02/17 14:00:34;;;;;;;;;;;16.60;99.90;;;;;;5043051;28;19944;-61
2023/02/17 14:03:21;;;;;;;;;;;16.60;99.90;;;;;;5048407;28;19972;-62
2023/02/17 14:05:47;;;;;;;;;;;16.60;99.90;;;;;;5044520;28;19928;-62
2023/02/17 14:08:21;;;;;;;;;;;16.60;99.90;;;;;;5043652;28;19945;-62
2023/02/17 14:10:47;;;;;;;;;;;16.60;99.90;;;;;;5043817;28;20055;-60
2023/02/17 14:13:12;;;;;;;;;;;16.50;99.90;;;;;;5049358;28;19995;-61
2023/02/17 14:15:48;;;;;;;;;;;16.40;99.90;;;;;;5046331;28;19935;-62
2023/02/17 14:18:14;;;;;;;;;;;16.30;99.90;;;;;;5044021;28;19975;-63
2023/02/17 14:20:40;;;;;;;;;;;16.10;99.90;;;;;;5047473;28;19913;-61
2023/02/17 14:23:08;;;;;;;;;;;16.10;99.90;;;;;;5041446;28;19919;-60
2023/02/17 14:25:36;;;;;;;;;;;16.20;99.90;;;;;;5044078;28;19966;-62
2023/02/17 14:28:02;;;;;;;;;;;16.10;99.90;;;;;;5046948;28;19926;-62